Time;durP1;ratioP1;P1;durP2;ratioP2;P2;SDS_P1;SDS_P2;PMS_P1;PMS_P2;Temp;Humidity;BMP_temperature;BMP_pressure;BME280_temperature;BME280_humidity;BME280_pressure;Samples;Min_cycle;Max_cycle;Signal;HPM_P1;HPM_P2
2022/03/26 00:01:34;477709.00;1.59;823.45;98710.00;0.33;171.35;;;;;14.40;1.00;;;;;;2252000;61;2125;-85
2022/03/26 00:04:01;223499.00;0.74;386.36;0.00;0.00;0.62;;;;;14.40;1.00;;;;;;2252001;61;1199;-86
2022/03/26 00:06:28;147718.00;0.49;255.87;0.00;0.00;0.62;;;;;14.50;1.00;;;;;;2251760;61;1360;-86
2022/03/26 00:08:55;205829.00;0.69;355.96;0.00;0.00;0.62;;;;;14.80;1.00;;;;;;2251887;61;1075;-85
2022/03/26 00:11:23;210285.00;0.70;363.63;0.00;0.00;0.62;;;;;15.10;1.00;;;;;;2251883;61;1164;-86
2022/03/26 00:13:51;145844.00;0.49;252.64;0.00;0.00;0.62;;;;;15.40;1.00;;;;;;2251863;61;1686;-85
2022/03/26 00:16:18;138316.00;0.46;239.67;23911.00;0.08;42.04;;;;;15.10;1.00;;;;;;2252073;61;1503;-88
2022/03/26 00:18:45;476421.00;1.59;821.24;0.00;0.00;0.62;;;;;15.20;1.00;;;;;;2252065;61;1987;-84
2022/03/26 00:21:12;108204.00;0.36;187.73;0.00;0.00;0.62;;;;;15.30;1.00;;;;;;2251790;61;1701;-86
2022/03/26 00:23:39;233049.00;0.78;402.79;0.00;0.00;0.62;;;;;15.40;1.00;;;;;;2251802;61;1107;-85
2022/03/26 00:26:07;119167.00;0.40;206.65;0.00;0.00;0.62;;;;;15.40;1.00;;;;;;2251958;61;2172;-85
2022/03/26 00:28:37;76726.00;0.26;133.38;0.00;0.00;0.62;;;;;15.40;1.00;;;;;;2251489;61;2228;-85
2022/03/26 00:31:04;168631.00;0.56;291.91;0.00;0.00;0.62;;;;;15.40;1.00;;;;;;2251428;61;1157;-83
2022/03/26 00:33:32;125600.00;0.42;217.74;0.00;0.00;0.62;;;;;15.70;1.00;;;;;;2251596;61;1085;-83
2022/03/26 00:35:59;285385.00;0.95;492.80;36898.00;0.12;64.52;;;;;15.70;1.00;;;;;;2251478;61;1375;-83
2022/03/26 00:38:26;117603.00;0.39;203.95;0.00;0.00;0.62;;;;;15.40;1.00;;;;;;2251666;61;1920;-83
2022/03/26 00:40:53;318694.00;1.06;550.05;100151.00;0.33;173.83;;;;;15.00;1.00;;;;;;2251819;61;1159;-88
2022/03/26 00:43:20;831979.00;2.77;1436.95;35756.00;0.12;62.54;;;;;15.00;1.00;;;;;;2251982;61;965;-85
2022/03/26 00:45:48;1307338.00;4.36;2285.54;92495.00;0.31;160.62;;;;;15.10;1.00;;;;;;2251428;61;1416;-85
2022/03/26 00:48:15;1078073.00;3.59;1871.25;137744.00;0.46;238.68;;;;;15.00;1.00;;;;;;2251827;61;1094;-85
2022/03/26 00:50:42;1113070.00;3.71;1933.81;103701.00;0.35;179.96;;;;;15.20;1.00;;;;;;2251594;61;1168;-84
2022/03/26 00:53:09;452328.00;1.51;779.79;106184.00;0.35;184.24;;;;;15.20;1.00;;;;;;2251733;61;1187;-86
2022/03/26 00:55:36;368938.00;1.23;636.41;80413.00;0.27;139.75;;;;;15.40;1.00;;;;;;2251596;61;1344;-83
2022/03/26 00:58:03;316039.00;1.05;545.49;67619.00;0.23;117.65;;;;;15.50;1.00;;;;;;2251705;61;2011;-85
2022/03/26 01:00:30;405092.00;1.35;698.56;78134.00;0.26;135.81;;;;;15.50;1.00;;;;;;2252061;61;1112;-87
2022/03/26 01:03:02;185319.00;0.62;320.65;0.00;0.00;0.62;;;;;15.30;1.00;;;;;;2251853;61;1603;-86
2022/03/26 01:05:29;297063.00;0.99;512.87;0.00;0.00;0.62;;;;;15.40;1.00;;;;;;2252012;61;1462;-88
2022/03/26 01:07:56;294468.00;0.98;508.41;0.00;0.00;0.62;;;;;15.30;1.00;;;;;;2252027;61;1087;-88
2022/03/26 01:10:23;118975.00;0.40;206.31;0.00;0.00;0.62;;;;;15.40;1.00;;;;;;2252038;61;1474;-87
2022/03/26 01:12:50;153971.00;0.51;266.65;0.00;0.00;0.62;;;;;15.40;1.00;;;;;;2252081;61;1144;-87
2022/03/26 01:15:17;117084000.00;390.28;65015672.00;0.00;0.00;0.62;;;;;14.90;1.00;;;;;;2251782;61;1456;-87
2022/03/26 01:17:44;92501.00;0.31;160.63;0.00;0.00;0.62;;;;;15.10;1.00;;;;;;2251955;61;1914;-90
2022/03/26 01:20:13;190236.00;0.63;329.11;0.00;0.00;0.62;;;;;15.10;1.00;;;;;;2251995;61;1434;-88
2022/03/26 01:22:40;101281.00;0.34;175.78;0.00;0.00;0.62;;;;;15.40;1.00;;;;;;2252023;61;1104;-88
2022/03/26 01:25:07;97511.00;0.33;169.28;0.00;0.00;0.62;;;;;15.10;1.00;;;;;;2251991;61;1308;-88
2022/03/26 01:27:34;222122.00;0.74;383.99;0.00;0.00;0.62;;;;;14.70;1.00;;;;;;2251968;61;1376;-88
2022/03/26 01:30:01;182045.00;0.61;315.01;0.00;0.00;0.62;;;;;14.20;1.00;;;;;;2251953;61;1069;-89
2022/03/26 01:32:28;243267.00;0.81;420.37;0.00;0.00;0.62;;;;;14.00;1.00;;;;;;2251998;61;1054;-88
2022/03/26 01:34:55;218835.00;0.73;378.34;35780.00;0.12;62.59;;;;;14.30;1.00;;;;;;2251990;61;1085;-88
2022/03/26 01:37:24;122639.00;0.41;212.63;0.00;0.00;0.62;;;;;14.40;1.00;;;;;;2251889;61;1929;-88
2022/03/26 01:39:52;698939.00;2.33;1205.40;25646.00;0.09;45.05;;;;;14.20;1.00;;;;;;2251992;61;2101;-90
2022/03/26 01:42:19;1194132.00;3.98;2079.61;64476.00;0.21;112.21;;;;;13.80;1.00;;;;;;2251921;61;1621;-88
2022/03/26 01:44:47;1516139.00;5.05;2673.53;99944.00;0.33;173.48;;;;;13.90;1.00;;;;;;2251630;61;1070;-85
2022/03/26 01:47:14;1624027.00;5.41;2878.75;139202.00;0.46;241.20;;;;;13.90;1.00;;;;;;2251456;61;1309;-85
2022/03/26 01:49:41;436212.00;1.45;752.07;80190.00;0.27;139.37;;;;;14.20;1.00;;;;;;2251649;61;1570;-85
2022/03/26 01:52:10;354664.00;1.18;611.88;93671.00;0.31;162.65;;;;;14.20;1.00;;;;;;2251582;61;2163;-87
2022/03/26 01:54:39;141955.00;0.47;245.94;0.00;0.00;0.62;;;;;14.50;1.00;;;;;;2251811;61;1647;-86
2022/03/26 01:57:10;124059.00;0.41;215.08;0.00;0.00;0.62;;;;;14.50;1.00;;;;;;2251292;61;1479;-84
2022/03/26 01:59:38;75738.00;0.25;131.67;0.00;0.00;0.62;;;;;14.50;1.00;;;;;;2251515;61;2049;-86
2022/03/26 02:02:05;128135.00;0.43;222.11;0.00;0.00;0.62;;;;;14.40;1.00;;;;;;2251430;61;1193;-85
2022/03/26 02:04:34;101717.00;0.34;176.54;0.00;0.00;0.62;;;;;14.30;1.00;;;;;;2251289;61;1126;-86
2022/03/26 02:07:04;194043.00;0.65;335.67;0.00;0.00;0.62;;;;;13.90;1.00;;;;;;2251629;61;1399;-86
2022/03/26 02:09:35;78091.00;0.26;135.74;0.00;0.00;0.62;;;;;14.00;1.00;;;;;;2251353;61;1140;-86
2022/03/26 02:12:04;511531.00;1.71;881.68;107761.00;0.36;186.97;;;;;13.90;1.00;;;;;;2251572;61;1564;-86
2022/03/26 02:14:33;282836.00;0.94;488.41;26443.00;0.09;46.43;;;;;13.70;1.00;;;;;;2251832;61;1729;-87
2022/03/26 02:17:00;365730.00;1.22;630.90;19982.00;0.07;35.24;;;;;13.20;1.00;;;;;;2251631;61;1465;-87
2022/03/26 02:19:26;158288.00;0.53;274.09;0.00;0.00;0.62;;;;;12.70;1.00;;;;;;2251785;61;1994;-86
2022/03/26 02:21:55;134241.00;0.45;232.64;0.00;0.00;0.62;;;;;12.80;1.00;;;;;;2251637;61;1514;-86
2022/03/26 02:24:22;399982.00;1.33;689.77;23589.00;0.08;41.48;;;;;12.90;1.00;;;;;;2251530;61;1112;-86
2022/03/26 02:26:50;48778.00;0.16;85.07;0.00;0.00;0.62;;;;;13.10;1.00;;;;;;2251232;61;1356;-85
2022/03/26 02:29:17;231258.00;0.77;399.71;0.00;0.00;0.62;;;;;13.30;1.00;;;;;;2251673;61;1105;-86
2022/03/26 02:31:44;502427.00;1.67;866.00;0.00;0.00;0.62;;;;;13.20;1.00;;;;;;2251410;61;1151;-84
2022/03/26 02:34:11;26190.00;0.09;45.99;0.00;0.00;0.62;;;;;13.10;1.00;;;;;;2251379;61;1082;-84
2022/03/26 02:36:38;241804.00;0.81;417.85;0.00;0.00;0.62;;;;;13.10;1.00;;;;;;2251670;61;1329;-87
2022/03/26 02:39:07;216511.00;0.72;374.34;0.00;0.00;0.62;;;;;12.90;1.00;;;;;;2251355;61;2016;-84
2022/03/26 02:41:34;412346.00;1.37;711.03;17283.00;0.06;30.56;;;;;13.00;1.00;;;;;;2251316;61;1199;-85
2022/03/26 02:44:01;215718.00;0.72;372.98;0.00;0.00;0.62;;;;;12.60;1.00;;;;;;2251356;61;1580;-86
2022/03/26 02:46:28;61103.00;0.20;106.38;0.00;0.00;0.62;;;;;12.60;1.00;;;;;;2251527;61;1385;-84
2022/03/26 02:48:55;196610.00;0.66;340.09;0.00;0.00;0.62;;;;;12.30;1.00;;;;;;2251426;61;1161;-84
2022/03/26 02:51:22;357681.00;1.19;617.06;27782.00;0.09;48.74;;;;;12.70;1.00;;;;;;2251434;61;1297;-84
2022/03/26 02:53:49;247378.00;0.82;427.44;45120.00;0.15;78.75;;;;;12.60;1.00;;;;;;2251328;61;1138;-84
2022/03/26 02:56:19;139421.00;0.46;241.57;0.00;0.00;0.62;;;;;13.00;1.00;;;;;;2251343;61;1352;-83
2022/03/26 02:58:46;84657.00;0.28;147.08;0.00;0.00;0.62;;;;;13.40;1.00;;;;;;2251317;61;1985;-84
2022/03/26 03:01:13;264517.00;0.88;456.92;0.00;0.00;0.62;;;;;13.80;1.00;;;;;;2251379;61;1073;-85
2022/03/26 03:03:40;287756.00;0.96;496.87;0.00;0.00;0.62;;;;;13.90;1.00;;;;;;2251301;61;1105;-88
2022/03/26 03:06:07;286118.00;0.95;494.06;15592.00;0.05;27.64;;;;;13.50;1.00;;;;;;2251445;61;1586;-85
2022/03/26 03:08:34;119678.00;0.40;207.53;0.00;0.00;0.62;;;;;13.30;1.00;;;;;;2251431;61;1153;-84
2022/03/26 03:11:01;35325.00;0.12;61.80;0.00;0.00;0.62;;;;;13.60;1.00;;;;;;2251278;61;2285;-85
2022/03/26 03:13:29;387815.00;1.29;668.86;10507.00;0.04;18.83;;;;;13.60;1.00;;;;;;2251243;61;2386;-85
2022/03/26 03:15:58;583225.00;1.94;1005.26;22234.00;0.07;39.14;;;;;13.10;1.00;;;;;;2251262;61;1381;-85
2022/03/26 03:18:25;251445.00;0.84;434.44;0.00;0.00;0.62;;;;;12.70;1.00;;;;;;2251596;61;1923;-88
2022/03/26 03:20:52;630296.00;2.10;1086.56;33196.00;0.11;58.11;;;;;12.40;1.00;;;;;;2251628;61;2215;-85
2022/03/26 03:23:19;945985.00;3.15;1637.03;67212.00;0.22;116.94;;;;;12.50;1.00;;;;;;2251712;61;1184;-88
2022/03/26 03:25:46;920204.00;3.07;1591.63;9830.00;0.03;17.65;;;;;13.00;1.00;;;;;;2251611;61;1270;-88
2022/03/26 03:28:13;627491.00;2.09;1081.71;16537.00;0.06;29.27;;;;;13.40;1.00;;;;;;2251363;61;1138;-87
2022/03/26 03:30:43;1112177.00;3.71;1932.21;41783.00;0.14;72.97;;;;;13.30;1.00;;;;;;2251328;61;1167;-84
2022/03/26 03:33:10;612149.00;2.04;1055.20;0.00;0.00;0.62;;;;;13.50;1.00;;;;;;2251301;61;1435;-84
2022/03/26 03:35:37;1214190.00;4.05;2115.90;53046.00;0.18;92.45;;;;;13.70;1.00;;;;;;2251307;61;1278;-85
2022/03/26 03:38:04;833121.00;2.78;1438.95;73293.00;0.24;127.45;;;;;13.60;1.00;;;;;;2251643;61;1915;-85
2022/03/26 03:40:31;736927.00;2.46;1271.34;1192.00;0.00;2.69;;;;;13.30;1.00;;;;;;2251432;61;1259;-85
2022/03/26 03:42:58;1082234.00;3.61;1878.68;31754.00;0.11;55.62;;;;;13.60;1.00;;;;;;2251986;61;1148;-86
2022/03/26 03:45:25;796169.00;2.65;1374.44;0.00;0.00;0.62;;;;;13.80;1.00;;;;;;2251835;61;1270;-85
2022/03/26 03:47:53;784592.00;2.62;1354.27;36955.00;0.12;64.62;;;;;13.80;1.00;;;;;;2251995;61;1172;-86
2022/03/26 03:50:20;1014044.00;3.38;1757.36;33202.00;0.11;58.13;;;;;13.60;1.00;;;;;;2251991;61;1088;-84
2022/03/26 03:52:48;734364.00;2.45;1266.88;0.00;0.00;0.62;;;;;13.70;1.00;;;;;;2251790;61;1110;-84
2022/03/26 03:55:14;1100176.00;3.67;1910.74;42015.00;0.14;73.37;;;;;13.80;1.00;;;;;;2251772;61;1576;-84
2022/03/26 03:57:43;1112163.00;3.71;1932.19;107210.00;0.36;186.02;;;;;13.60;1.00;;;;;;2251776;61;2100;-85
2022/03/26 04:00:11;1201053.00;4.00;2092.12;152738.00;0.51;264.53;;;;;13.40;1.00;;;;;;2251799;61;2011;-85
2022/03/26 04:02:38;1295169.00;4.32;2263.27;143336.00;0.48;248.32;;;;;12.90;1.00;;;;;;2251629;61;1179;-86
2022/03/26 04:05:09;521316.00;1.74;898.53;79148.00;0.26;137.57;;;;;12.20;1.00;;;;;;2251985;61;1020;-85
2022/03/26 04:07:37;433011.00;1.44;746.56;110570.00;0.37;191.81;;;;;11.80;1.00;;;;;;2251802;61;1547;-85
2022/03/26 04:10:04;624718.00;2.08;1076.92;102601.00;0.34;178.06;;;;;12.20;1.00;;;;;;2251849;61;1135;-84
2022/03/26 04:12:31;563284.00;1.88;970.86;120901.00;0.40;209.64;;;;;11.90;1.00;;;;;;2251894;61;1116;-84
2022/03/26 04:14:59;450866.00;1.50;777.27;97579.00;0.33;169.39;;;;;12.30;1.00;;;;;;2251997;61;1667;-84
2022/03/26 04:17:26;903500.00;3.01;1562.27;123291.00;0.41;213.76;;;;;11.80;1.00;;;;;;2251977;61;1432;-85
2022/03/26 04:19:53;228730.00;0.76;395.36;77676.00;0.26;135.02;;;;;11.80;1.00;;;;;;2251816;61;1999;-85
2022/03/26 04:22:22;638133.00;2.13;1100.11;90933.00;0.30;157.92;;;;;12.50;1.00;;;;;;2251886;61;1110;-85
2022/03/26 04:24:49;421027.00;1.40;725.96;79935.00;0.27;138.93;;;;;12.80;1.00;;;;;;2251880;61;1128;-85
2022/03/26 04:27:16;338005.00;1.13;583.24;95276.00;0.32;165.42;;;;;12.90;1.00;;;;;;2251745;61;1381;-85
2022/03/26 04:29:43;374780.00;1.25;646.45;75805.00;0.25;131.79;;;;;13.00;1.00;;;;;;2251774;61;1746;-85
2022/03/26 04:32:10;657288.00;2.19;1133.25;91734.00;0.31;159.30;;;;;13.20;1.00;;;;;;2251908;61;1140;-86
2022/03/26 04:34:37;690024.00;2.30;1189.94;131011.00;0.44;227.07;;;;;13.00;1.00;;;;;;2251745;61;1211;-85
2022/03/26 04:37:05;275321.00;0.92;475.49;88093.00;0.29;153.01;;;;;12.80;1.00;;;;;;2251783;61;1297;-86
2022/03/26 04:39:34;364985.00;1.22;629.62;99138.00;0.33;172.08;;;;;13.10;1.00;;;;;;2251552;61;1924;-86
2022/03/26 04:42:01;573735.00;1.91;988.89;155222.00;0.52;268.81;;;;;13.30;1.00;;;;;;2251817;61;1120;-87
2022/03/26 04:44:28;496322.00;1.65;855.49;97760.00;0.33;169.71;;;;;13.00;1.00;;;;;;2251302;61;983;-85
2022/03/26 04:46:55;252952.00;0.84;437.03;77848.00;0.26;135.32;;;;;12.30;1.00;;;;;;2251648;61;1360;-84
2022/03/26 04:49:22;117465368.00;391.55;65653636.00;7536.00;0.03;13.68;;;;;11.20;1.00;;;;;;2251363;61;1078;-84
2022/03/26 04:51:49;198158.00;0.66;342.75;0.00;0.00;0.62;;;;;11.20;1.00;;;;;;2251387;61;2189;-85
2022/03/26 04:54:16;80073.00;0.27;139.16;0.00;0.00;0.62;;;;;11.60;1.00;;;;;;2251517;61;1089;-85
2022/03/26 04:56:44;432170.00;1.44;745.12;13189.00;0.04;23.47;;;;;11.10;1.00;;;;;;2251411;61;1353;-84
2022/03/26 04:59:11;188304.00;0.63;325.79;0.00;0.00;0.62;;;;;11.20;1.00;;;;;;2251575;61;1998;-87
2022/03/26 05:01:38;183130.00;0.61;316.88;0.00;0.00;0.62;;;;;11.50;1.00;;;;;;2251990;61;1455;-86
2022/03/26 05:04:05;92123.00;0.31;159.97;0.00;0.00;0.62;;;;;11.10;1.00;;;;;;2251637;61;1176;-86
2022/03/26 05:06:32;341889.00;1.14;589.92;28150.00;0.09;49.38;;;;;11.90;1.00;;;;;;2251602;61;1296;-85
2022/03/26 05:08:59;107201.00;0.36;186.00;0.00;0.00;0.62;;;;;12.10;1.00;;;;;;2251822;61;1109;-86
2022/03/26 05:11:26;256750.00;0.86;443.56;0.00;0.00;0.62;;;;;12.30;1.00;;;;;;2251740;61;1185;-85
2022/03/26 05:13:54;209781.00;0.70;362.76;0.00;0.00;0.62;;;;;12.60;1.00;;;;;;2251559;61;1082;-84
2022/03/26 05:16:21;181390.00;0.60;313.88;0.00;0.00;0.62;;;;;12.70;1.00;;;;;;2251465;61;1433;-86
2022/03/26 05:18:48;194470.00;0.65;336.40;0.00;0.00;0.62;;;;;12.40;1.00;;;;;;2251572;61;1934;-86
2022/03/26 05:21:15;117079472.00;390.26;65008120.00;0.00;0.00;0.62;;;;;12.00;1.00;;;;;;2251679;61;1104;-85
2022/03/26 05:23:42;239624.00;0.80;414.10;0.00;0.00;0.62;;;;;11.00;1.00;;;;;;2251536;61;1660;-83
2022/03/26 05:26:09;534139.00;1.78;920.62;49436.00;0.16;86.21;;;;;10.70;1.00;;;;;;2251360;61;1377;-83
2022/03/26 05:28:36;245394.00;0.82;424.03;0.00;0.00;0.62;;;;;10.30;1.00;;;;;;2251701;61;1112;-84
2022/03/26 05:31:05;281235.00;0.94;485.66;52510.00;0.18;91.53;;;;;10.30;1.00;;;;;;2251525;61;2210;-84
2022/03/26 05:33:32;295450.00;0.98;510.10;0.00;0.00;0.62;;;;;10.30;1.00;;;;;;2251650;61;1244;-84
2022/03/26 05:35:59;466314.00;1.55;803.85;35094.00;0.12;61.40;;;;;9.80;1.00;;;;;;2251598;61;1404;-86
2022/03/26 05:38:26;367119.00;1.22;633.28;32346.00;0.11;56.64;;;;;10.20;1.00;;;;;;2251858;61;1680;-86
2022/03/26 05:40:53;251765.00;0.84;434.99;0.00;0.00;0.62;;;;;10.60;1.00;;;;;;2251822;61;2051;-87
2022/03/26 05:43:20;374226.00;1.25;645.50;0.00;0.00;0.62;;;;;11.60;1.00;;;;;;2251951;61;1087;-87
2022/03/26 05:45:50;159633.00;0.53;276.41;0.00;0.00;0.62;;;;;12.20;1.00;;;;;;2251811;61;1278;-87
2022/03/26 05:48:19;171726.00;0.57;297.24;0.00;0.00;0.62;;;;;12.20;1.00;;;;;;2251806;61;1147;-86
2022/03/26 05:50:46;453999.00;1.51;782.66;4849.00;0.02;9.02;;;;;12.30;1.00;;;;;;2251556;61;1134;-85
2022/03/26 05:53:13;179623.00;0.60;310.84;0.00;0.00;0.62;;;;;12.30;1.00;;;;;;2251395;61;1643;-86
2022/03/26 05:55:39;225550.00;0.75;389.89;0.00;0.00;0.62;;;;;13.00;1.00;;;;;;2251318;61;1328;-85
2022/03/26 05:58:06;202404.00;0.67;350.06;0.00;0.00;0.62;;;;;13.20;1.00;;;;;;2251497;61;1145;-86
2022/03/26 06:00:33;229087.00;0.76;395.98;0.00;0.00;0.62;;;;;13.20;1.00;;;;;;2251419;61;1995;-85
2022/03/26 06:03:00;112781.00;0.38;195.63;0.00;0.00;0.62;;;;;12.80;1.00;;;;;;2251528;61;1016;-84
2022/03/26 06:05:28;564680.00;1.88;973.27;39162.00;0.13;68.44;;;;;13.30;1.00;;;;;;2251334;61;1404;-84
2022/03/26 06:07:56;177985.00;0.59;308.02;0.00;0.00;0.62;;;;;13.50;1.00;;;;;;2251537;61;1095;-84
2022/03/26 06:10:23;506826.00;1.69;873.58;110786.00;0.37;192.19;;;;;13.90;1.00;;;;;;2251672;61;1127;-85
2022/03/26 06:12:50;362940.00;1.21;626.10;98465.00;0.33;170.92;;;;;14.00;1.00;;;;;;2251567;61;904;-84
2022/03/26 06:15:17;167025.00;0.56;289.14;0.00;0.00;0.62;;;;;14.10;1.00;;;;;;2251386;61;1644;-85
2022/03/26 06:17:46;66171.00;0.22;115.14;0.00;0.00;0.62;;;;;13.90;1.00;;;;;;2251283;61;1025;-84
2022/03/26 06:20:13;242357.00;0.81;418.81;0.00;0.00;0.62;;;;;14.40;1.00;;;;;;2251088;61;1928;-84
2022/03/26 06:22:41;170770.00;0.57;295.59;0.00;0.00;0.62;;;;;14.50;1.00;;;;;;2251330;61;1140;-84
2022/03/26 06:25:08;198759.00;0.66;343.79;0.00;0.00;0.62;;;;;15.20;1.00;;;;;;2251255;61;1043;-85
2022/03/26 06:27:35;109866.00;0.37;190.60;0.00;0.00;0.62;;;;;15.70;1.00;;;;;;2251185;61;1552;-85
2022/03/26 06:30:03;151404.00;0.50;262.23;0.00;0.00;0.62;;;;;16.10;1.00;;;;;;2251245;61;1114;-85
2022/03/26 06:32:30;378819.00;1.26;653.40;73420.00;0.24;127.67;;;;;16.30;1.00;;;;;;2251491;61;1064;-84
2022/03/26 06:34:57;383341.00;1.28;661.17;11475.00;0.04;20.50;;;;;16.40;1.00;;;;;;2251324;61;1111;-87
2022/03/26 06:37:24;368761.00;1.23;636.11;61951.00;0.21;107.85;;;;;16.20;1.00;;;;;;2251330;61;1295;-83
2022/03/26 06:39:53;582756.00;1.94;1004.45;96459.00;0.32;167.46;;;;;16.10;1.00;;;;;;2251320;61;1920;-83
2022/03/26 06:42:20;28843.00;0.10;50.58;0.00;0.00;0.62;;;;;16.70;1.00;;;;;;2251126;61;1129;-83
2022/03/26 06:44:46;153464.00;0.51;265.78;0.00;0.00;0.62;;;;;16.60;1.00;;;;;;2251434;61;1062;-82
2022/03/26 06:47:13;92186.00;0.31;160.08;0.00;0.00;0.62;;;;;15.40;1.00;;;;;;2251511;61;1258;-84
2022/03/26 06:49:41;165254.00;0.55;286.09;0.00;0.00;0.62;;;;;15.80;1.00;;;;;;2251692;61;1172;-85
2022/03/26 06:52:09;330616.00;1.10;570.54;29497.00;0.10;51.71;;;;;15.80;1.00;;;;;;2251592;61;1029;-82
2022/03/26 06:54:36;200412.00;0.67;346.63;13924.00;0.05;24.75;;;;;16.70;1.00;;;;;;2251267;61;1160;-83
2022/03/26 06:57:05;429766.00;1.43;740.98;17768.00;0.06;31.40;;;;;17.50;1.00;;;;;;2251581;61;1402;-86
2022/03/26 06:59:32;257140.00;0.86;444.23;0.00;0.00;0.62;;;;;17.80;1.00;;;;;;2251226;61;2013;-84
2022/03/26 07:01:59;55882.00;0.19;97.36;0.00;0.00;0.62;;;;;18.20;1.00;;;;;;2251162;61;1206;-82
2022/03/26 07:04:27;141998.00;0.47;246.02;0.00;0.00;0.62;;;;;17.80;1.00;;;;;;2251268;61;2203;-84
2022/03/26 07:06:53;283459.00;0.94;489.48;0.00;0.00;0.62;;;;;18.00;1.00;;;;;;2251291;61;1352;-85
2022/03/26 07:09:23;185569.00;0.62;321.08;29880.00;0.10;52.38;;;;;18.20;1.00;;;;;;2251220;61;1132;-83
2022/03/26 07:11:50;472796.00;1.58;815.00;15646.00;0.05;27.73;;;;;18.70;1.00;;;;;;2251281;61;1288;-84
2022/03/26 07:14:18;891220.00;2.97;1540.70;38205.00;0.13;66.78;;;;;18.80;1.00;;;;;;2251994;61;1156;-84
2022/03/26 07:16:45;322600.00;1.08;556.77;30495.00;0.10;53.44;;;;;18.90;1.00;;;;;;2252034;61;1356;-83
2022/03/26 07:19:12;511402.00;1.70;881.46;8124.00;0.03;14.70;;;;;18.90;1.00;;;;;;2252154;61;1932;-85
2022/03/26 07:21:40;1116816.00;3.72;1940.52;154017.00;0.51;266.73;;;;;19.00;1.00;;;;;;2252121;61;1892;-86
2022/03/26 07:24:08;816615.00;2.72;1410.12;20968.00;0.07;36.95;;;;;19.40;1.00;;;;;;2252190;61;1022;-84
2022/03/26 07:26:34;591000.00;1.97;1018.68;3730.00;0.01;7.08;;;;;19.50;1.00;;;;;;2252006;61;1375;-85
2022/03/26 07:29:02;1337452.00;4.46;2340.81;68746.00;0.23;119.59;;;;;19.50;1.00;;;;;;2252041;61;1558;-83
2022/03/26 07:31:31;1200516.00;4.00;2091.15;47787.00;0.16;83.36;;;;;19.20;1.00;;;;;;2252161;61;1074;-85
2022/03/26 07:33:58;946379.00;3.15;1637.73;76854.00;0.26;133.60;;;;;19.30;1.00;;;;;;2252362;61;1228;-86
2022/03/26 07:36:25;1646729.00;5.49;2922.38;130589.00;0.44;226.34;;;;;19.50;1.00;;;;;;2252021;61;1336;-87
2022/03/26 07:38:52;722316.00;2.41;1245.96;72733.00;0.24;126.48;;;;;19.80;1.00;;;;;;2251944;61;2148;-88
2022/03/26 07:41:21;411190.00;1.37;709.04;88321.00;0.29;153.41;;;;;19.90;1.00;;;;;;2252130;61;1930;-88
2022/03/26 07:43:48;600202.00;2.00;1034.57;150335.00;0.50;260.38;;;;;20.00;1.00;;;;;;2252187;61;1286;-88
2022/03/26 07:46:18;482572.00;1.61;831.82;97876.00;0.33;169.91;;;;;20.00;1.00;;;;;;2252182;61;1310;-86
2022/03/26 07:48:46;324031.00;1.08;559.23;75380.00;0.25;131.06;;;;;20.00;1.00;;;;;;2252281;61;1046;-86
2022/03/26 07:51:13;486676.00;1.62;838.89;83240.00;0.28;144.63;;;;;19.90;1.00;;;;;;2252236;61;958;-87
2022/03/26 07:53:40;614743.00;2.05;1059.68;149368.00;0.50;258.72;;;;;20.10;1.00;;;;;;2251861;61;1001;-85
2022/03/26 07:56:07;511045.00;1.70;880.84;89053.00;0.30;154.67;;;;;20.30;1.00;;;;;;2251681;61;1279;-87
2022/03/26 07:58:34;310494.00;1.03;535.96;65580.00;0.22;114.12;;;;;20.90;1.00;;;;;;2252084;61;2633;-87
2022/03/26 08:01:01;336822.00;1.12;581.21;0.00;0.00;0.62;;;;;20.40;1.00;;;;;;2252212;61;1994;-87
2022/03/26 08:03:28;451955.00;1.51;779.15;0.00;0.00;0.62;;;;;20.40;1.00;;;;;;2252195;61;965;-86
2022/03/26 08:05:57;143881.00;0.48;249.26;0.00;0.00;0.62;;;;;20.40;1.00;;;;;;2251748;61;1340;-84
2022/03/26 08:08:24;173917.00;0.58;301.01;0.00;0.00;0.62;;;;;20.00;1.00;;;;;;2251448;61;1078;-84
2022/03/26 08:10:50;113398.00;0.38;196.69;0.00;0.00;0.62;;;;;20.00;1.00;;;;;;2251391;61;991;-83
2022/03/26 08:13:17;167670.00;0.56;290.25;0.00;0.00;0.62;;;;;20.40;1.00;;;;;;2251506;61;2213;-85
2022/03/26 08:15:44;175994.00;0.59;304.59;0.00;0.00;0.62;;;;;19.50;1.00;;;;;;2251369;61;1535;-83
2022/03/26 08:18:12;227807.00;0.76;393.78;33609.00;0.11;58.83;;;;;19.10;1.00;;;;;;2251089;61;1109;-84
2022/03/26 08:20:39;148237.00;0.49;256.77;22120.00;0.07;38.94;;;;;19.40;1.00;;;;;;2250654;61;2002;-84
2022/03/26 08:23:07;162299.00;0.54;281.00;0.00;0.00;0.62;;;;;19.80;1.00;;;;;;2251275;61;1136;-83
2022/03/26 08:28:19;317505.00;1.06;548.01;0.00;0.00;0.62;;;;;18.40;1.00;;;;;;2251388;61;661;-85
2022/03/26 08:30:46;521281.00;1.74;898.47;27410.00;0.09;48.10;;;;;18.10;1.00;;;;;;2250836;61;1455;-83
2022/03/26 08:33:13;1432611.00;4.78;2516.94;134644.00;0.45;233.34;;;;;18.50;1.00;;;;;;2251539;61;1100;-86
2022/03/26 08:35:42;946657.00;3.16;1638.22;127938.00;0.43;221.77;;;;;17.40;1.00;;;;;;2252083;61;1266;-87
2022/03/26 08:38:10;2035210.00;6.78;3696.87;127456.00;0.42;220.94;;;;;16.30;1.00;;;;;;2251584;61;1138;-83
2022/03/26 08:40:37;1189096.00;3.96;2070.52;116709.00;0.39;202.41;;;;;16.50;1.00;;;;;;2251443;61;2014;-83
2022/03/26 08:43:07;582513.00;1.94;1004.04;77618.00;0.26;134.92;;;;;16.80;1.00;;;;;;2251645;61;1047;-85
2022/03/26 08:45:36;345996.00;1.15;596.98;94716.00;0.32;164.45;;;;;16.50;1.00;;;;;;2251656;61;1270;-85
2022/03/26 08:48:04;573558.00;1.91;988.58;83987.00;0.28;145.92;;;;;15.90;1.00;;;;;;2251893;61;1129;-85
2022/03/26 08:50:31;304757.00;1.02;526.10;72074.00;0.24;125.34;;;;;15.10;1.00;;;;;;2251837;61;2409;-85
2022/03/26 08:52:58;293473.00;0.98;506.70;92548.00;0.31;160.71;;;;;15.20;1.00;;;;;;2251474;61;1124;-86
2022/03/26 08:55:27;225080.00;0.75;389.08;0.00;0.00;0.62;;;;;15.80;1.00;;;;;;2250540;61;1360;-85
2022/03/26 08:57:54;169582.00;0.57;293.55;0.00;0.00;0.62;;;;;16.10;1.00;;;;;;2250495;61;1191;-85
2022/03/26 09:00:21;1021911.00;3.41;1771.32;170059.00;0.57;294.37;;;;;16.10;1.00;;;;;;2250808;61;2002;-85
2022/03/26 09:02:48;233613.00;0.78;403.76;15092.00;0.05;26.77;;;;;16.30;1.00;;;;;;2251485;61;1711;-85
2022/03/26 09:05:16;747480.00;2.49;1289.68;81792.00;0.27;142.13;;;;;15.80;1.00;;;;;;2251979;61;1118;-86
2022/03/26 09:07:43;267817.00;0.89;462.59;0.00;0.00;0.62;;;;;15.60;1.00;;;;;;2251795;61;2289;-85
2022/03/26 09:10:10;481717.00;1.61;830.35;0.00;0.00;0.62;;;;;15.70;1.00;;;;;;2251689;61;1744;-84
2022/03/26 09:12:39;177903.00;0.59;307.88;0.00;0.00;0.62;;;;;15.70;1.00;;;;;;2251412;61;1150;-85
2022/03/26 09:15:08;117112.00;0.39;203.10;0.00;0.00;0.62;;;;;15.90;1.00;;;;;;2251255;61;1808;-85
2022/03/26 09:17:36;358605.00;1.20;618.65;0.00;0.00;0.62;;;;;16.40;1.00;;;;;;2251353;61;1350;-85
2022/03/26 09:20:03;169226.00;0.56;292.93;0.00;0.00;0.62;;;;;16.60;1.00;;;;;;2251528;61;2009;-85
2022/03/26 09:22:30;202555.00;0.68;350.32;0.00;0.00;0.62;;;;;15.90;1.00;;;;;;2251383;61;1225;-85
2022/03/26 09:24:57;476106.00;1.59;820.70;45381.00;0.15;79.20;;;;;15.50;1.00;;;;;;2251488;61;1706;-84
2022/03/26 09:27:24;451682.00;1.51;778.68;0.00;0.00;0.62;;;;;15.40;1.00;;;;;;2251444;61;1376;-84
2022/03/26 09:29:53;375967.00;1.25;648.49;51015.00;0.17;88.94;;;;;15.50;1.00;;;;;;2251200;61;1122;-86
2022/03/26 09:32:20;246130.00;0.82;425.29;17879.00;0.06;31.60;;;;;15.50;1.00;;;;;;2251366;61;1121;-83
2022/03/26 09:34:48;251752.00;0.84;434.96;0.00;0.00;0.62;;;;;15.50;1.00;;;;;;2251195;61;1098;-83
2022/03/26 09:37:15;499677.00;1.67;861.27;53891.00;0.18;93.91;;;;;15.40;1.00;;;;;;2251146;61;1746;-83
2022/03/26 09:39:43;122279.00;0.41;212.01;0.00;0.00;0.62;;;;;15.70;1.00;;;;;;2251209;61;976;-84
2022/03/26 09:42:11;142805.00;0.48;247.41;0.00;0.00;0.62;;;;;15.80;1.00;;;;;;2251593;61;1980;-86
2022/03/26 09:44:39;1177214.00;3.92;2049.08;34556.00;0.12;60.47;;;;;15.60;1.00;;;;;;2250996;61;1133;-85